createdAt,value
2023-03-14T00:00:24.996Z,2.85
2023-03-14T00:03:13.790Z,2.81
2023-03-14T00:05:43.941Z,2.79
2023-03-14T00:08:12.775Z,2.79
2023-03-14T00:10:41.660Z,2.88
2023-03-14T00:13:11.475Z,2.98
2023-03-14T00:15:40.209Z,3.02
2023-03-14T00:18:11.415Z,3.02
2023-03-14T00:20:40.188Z,3.00
2023-03-14T00:23:12.557Z,2.96
2023-03-14T00:25:43.537Z,2.94
2023-03-14T00:28:15.432Z,2.97
2023-03-14T00:30:44.010Z,3.00
2023-03-14T00:33:12.716Z,2.98
2023-03-14T00:35:43.605Z,2.94
2023-03-14T00:38:12.384Z,2.91
2023-03-14T00:40:44.100Z,2.91
2023-03-14T00:43:12.679Z,2.94
2023-03-14T00:45:41.282Z,3.04
2023-03-14T00:48:09.900Z,3.09
2023-03-14T00:50:39.985Z,3.08
2023-03-14T00:53:09.511Z,3.06
2023-03-14T00:55:39.809Z,2.99
2023-03-14T00:58:08.488Z,2.94
2023-03-14T01:00:38.173Z,2.89
2023-03-14T01:03:07.672Z,2.82
2023-03-14T01:05:36.494Z,2.75
2023-03-14T01:08:06.171Z,2.69
2023-03-14T01:10:41.236Z,2.64
2023-03-14T01:13:10.579Z,2.55
2023-03-14T01:15:40.158Z,2.50
2023-03-14T01:18:08.850Z,2.46
2023-03-14T01:20:38.760Z,2.46
2023-03-14T01:23:07.445Z,2.45
2023-03-14T01:25:42.007Z,2.42
2023-03-14T01:28:14.171Z,2.40
2023-03-14T01:30:43.307Z,2.41
2023-03-14T01:33:16.183Z,2.41
2023-03-14T01:35:46.030Z,2.42
2023-03-14T01:38:14.963Z,2.44
2023-03-14T01:40:48.050Z,2.43
2023-03-14T01:46:53.687Z,2.42
2023-03-14T01:49:35.309Z,2.40
2023-03-14T01:55:43.866Z,2.37
2023-03-14T01:58:12.426Z,2.35
2023-03-14T02:00:41.189Z,2.33
2023-03-14T02:03:40.756Z,2.32
2023-03-14T02:06:12.255Z,2.30
2023-03-14T02:08:45.189Z,2.27
2023-03-14T02:11:34.677Z,2.27
2023-03-14T02:14:41.968Z,2.26
2023-03-14T02:17:39.440Z,2.26
2023-03-14T02:21:14.884Z,2.26
2023-03-14T02:24:27.478Z,2.26
2023-03-14T02:27:23.266Z,2.25
2023-03-14T02:30:07.061Z,2.23
2023-03-14T02:32:39.049Z,2.21
2023-03-14T02:35:15.526Z,2.19
2023-03-14T02:38:41.183Z,2.15
2023-03-14T02:41:09.871Z,2.12
2023-03-14T02:43:42.202Z,2.09
2023-03-14T02:46:15.404Z,2.09
2023-03-14T02:49:25.095Z,2.08
2023-03-14T02:51:56.003Z,2.09
2023-03-14T02:54:24.639Z,2.07
2023-03-14T02:56:54.489Z,2.08
2023-03-14T02:59:22.995Z,2.04
2023-03-14T03:01:55.644Z,2.01
2023-03-14T03:04:24.472Z,1.97
2023-03-14T03:06:53.116Z,1.92
2023-03-14T03:09:21.745Z,1.90
2023-03-14T03:11:50.522Z,1.87
2023-03-14T03:14:23.560Z,1.82
2023-03-14T03:16:52.514Z,1.78
2023-03-14T03:19:22.104Z,1.75
2023-03-14T03:21:50.837Z,1.73
2023-03-14T03:24:19.539Z,1.72
2023-03-14T03:26:48.814Z,1.70
2023-03-14T03:29:17.539Z,1.70
2023-03-14T03:31:47.600Z,1.69
2023-03-14T03:34:16.555Z,1.68
2023-03-14T03:36:45.340Z,1.68
2023-03-14T03:39:14.177Z,1.67
2023-03-14T03:41:42.979Z,1.66
2023-03-14T03:44:13.733Z,1.67
2023-03-14T03:46:42.629Z,1.68
2023-03-14T03:49:11.492Z,1.68
2023-03-14T03:51:41.778Z,1.69
2023-03-14T03:54:11.472Z,1.72
2023-03-14T03:56:44.101Z,1.73
2023-03-14T03:59:12.911Z,1.74
2023-03-14T04:01:42.015Z,1.74
2023-03-14T04:04:11.401Z,1.74
2023-03-14T04:06:42.965Z,1.72
2023-03-14T04:09:13.194Z,1.72
2023-03-14T04:11:48.453Z,1.74
2023-03-14T04:14:24.945Z,1.72
2023-03-14T04:17:23.356Z,1.68
2023-03-14T04:19:55.774Z,1.67
2023-03-14T04:22:31.485Z,1.65
2023-03-14T04:25:04.575Z,1.64
2023-03-14T04:27:37.919Z,1.61
2023-03-14T04:30:14.771Z,1.59
2023-03-14T04:33:21.952Z,1.59
2023-03-14T04:35:56.259Z,1.59
2023-03-14T04:38:25.278Z,1.60
2023-03-14T04:40:54.533Z,1.58
2023-03-14T04:43:26.971Z,1.58
2023-03-14T04:46:01.986Z,1.58
2023-03-14T04:48:33.278Z,1.57
2023-03-14T04:51:02.955Z,1.54
2023-03-14T04:53:38.314Z,1.50
2023-03-14T04:56:13.393Z,1.47
2023-03-14T04:58:45.728Z,1.46
2023-03-14T05:01:17.482Z,1.45
2023-03-14T05:04:05.262Z,1.44
2023-03-14T05:07:13.896Z,1.47
2023-03-14T05:10:02.168Z,1.54
2023-03-14T05:12:53.689Z,1.72
2023-03-14T05:15:41.400Z,1.85
2023-03-14T05:18:24.403Z,1.97
2023-03-14T05:21:14.373Z,2.13
2023-03-14T05:24:18.259Z,2.31
2023-03-14T05:27:02.317Z,2.47
2023-03-14T05:29:57.070Z,2.68
2023-03-14T05:32:26.910Z,2.89
2023-03-14T05:35:14.516Z,3.12
2023-03-14T05:38:04.512Z,3.39
2023-03-14T05:40:54.574Z,3.63
2023-03-14T05:43:35.357Z,3.81
2023-03-14T05:46:10.326Z,3.96
2023-03-14T05:49:02.440Z,4.13
2023-03-14T05:51:57.028Z,4.31
2023-03-14T05:54:46.516Z,4.44
2023-03-14T05:57:32.043Z,4.55
2023-03-14T06:00:23.131Z,4.66
2023-03-14T06:02:57.955Z,4.74
2023-03-14T06:05:29.868Z,4.82
2023-03-14T06:08:05.061Z,4.89
2023-03-14T06:10:39.087Z,4.92
2023-03-14T06:13:08.107Z,4.96
2023-03-14T06:15:37.218Z,5.00
2023-03-14T06:18:06.118Z,5.07
2023-03-14T06:20:40.238Z,5.20
2023-03-14T06:23:10.535Z,5.33
2023-03-14T06:25:39.825Z,5.45
2023-03-14T06:28:08.576Z,5.54
2023-03-14T06:30:38.171Z,5.58
2023-03-14T06:33:07.994Z,5.63
2023-03-14T06:35:39.116Z,5.73
2023-03-14T06:38:07.887Z,5.87
2023-03-14T06:40:39.151Z,6.01
2023-03-14T06:43:34.068Z,6.20
2023-03-14T06:46:02.712Z,6.42
2023-03-14T06:48:33.290Z,6.65
2023-03-14T06:51:03.012Z,6.80
2023-03-14T06:53:31.930Z,6.99
2023-03-14T06:56:01.380Z,7.22
2023-03-14T06:58:30.921Z,7.48
2023-03-14T07:01:00.208Z,7.77
2023-03-14T07:03:34.296Z,8.12
2023-03-14T07:06:05.326Z,8.46
2023-03-14T07:08:41.636Z,8.82
2023-03-14T07:11:12.265Z,9.16
2023-03-14T07:13:41.158Z,9.57
2023-03-14T07:16:12.889Z,9.93
2023-03-14T07:18:44.863Z,10.26
2023-03-14T07:21:15.704Z,10.45
2023-03-14T07:23:44.416Z,10.70
2023-03-14T07:26:13.969Z,10.86
2023-03-14T07:28:47.461Z,11.02
2023-03-14T07:31:18.734Z,11.24
2023-03-14T07:33:49.680Z,11.47
2023-03-14T07:36:18.846Z,11.69
2023-03-14T07:38:48.027Z,11.94
2023-03-14T07:41:37.542Z,12.36
2023-03-14T07:44:29.812Z,12.76
2023-03-14T07:46:58.421Z,13.02
2023-03-14T07:49:28.312Z,13.20
2023-03-14T07:51:56.832Z,13.32
2023-03-14T07:54:26.085Z,13.31
2023-03-14T07:56:54.598Z,13.32
2023-03-14T07:59:23.192Z,13.60
2023-03-14T08:01:51.615Z,13.92
2023-03-14T08:04:20.074Z,14.29
2023-03-14T08:06:48.635Z,14.40
2023-03-14T08:09:17.167Z,14.53
2023-03-14T08:11:45.690Z,14.74
2023-03-14T08:14:14.561Z,14.94
2023-03-14T08:16:43.109Z,15.15
2023-03-14T08:19:11.726Z,15.32
2023-03-14T08:21:40.974Z,15.44
2023-03-14T08:24:11.441Z,15.46
2023-03-14T08:26:40.169Z,15.44
2023-03-14T08:29:09.338Z,15.45
2023-03-14T08:31:37.943Z,15.51
2023-03-14T08:34:07.982Z,15.50
2023-03-14T08:36:36.906Z,15.51
2023-03-14T08:39:08.441Z,15.52
2023-03-14T08:41:42.345Z,15.56
2023-03-14T08:44:12.802Z,15.54
2023-03-14T08:46:42.183Z,15.44
2023-03-14T08:49:10.787Z,15.31
2023-03-14T08:51:39.468Z,15.19
2023-03-14T08:54:11.888Z,15.06
2023-03-14T08:56:40.553Z,14.94
2023-03-14T08:59:09.562Z,14.86
2023-03-14T09:01:38.432Z,14.81
2023-03-14T09:04:08.031Z,14.83
2023-03-14T09:06:36.902Z,14.93
2023-03-14T09:09:06.152Z,14.95
2023-03-14T09:11:34.704Z,14.89
2023-03-14T09:14:06.994Z,14.95
2023-03-14T09:16:35.954Z,15.07
2023-03-14T09:19:04.894Z,15.15
2023-03-14T09:21:33.736Z,15.15
2023-03-14T09:24:04.433Z,15.14
2023-03-14T09:26:33.053Z,15.10
2023-03-14T09:29:01.661Z,15.02
2023-03-14T09:31:30.845Z,14.90
2023-03-14T09:33:59.549Z,14.83
2023-03-14T09:36:28.178Z,14.80
2023-03-14T09:38:56.686Z,14.76
2023-03-14T09:41:36.001Z,14.66
2023-03-14T09:44:10.549Z,14.54
2023-03-14T09:46:41.155Z,14.44
2023-03-14T09:49:23.232Z,14.38
2023-03-14T09:51:55.708Z,14.23
2023-03-14T09:54:38.571Z,14.07
2023-03-14T09:57:24.812Z,14.00
2023-03-14T09:59:58.963Z,13.94
2023-03-14T10:02:37.456Z,14.06
2023-03-14T10:05:27.875Z,14.33
2023-03-14T10:07:56.890Z,14.65
2023-03-14T10:10:27.507Z,15.00
2023-03-14T10:13:37.909Z,15.42
2023-03-14T10:16:09.735Z,16.04
2023-03-14T10:18:38.200Z,16.41
2023-03-14T10:21:26.711Z,16.72
2023-03-14T10:23:56.031Z,16.76
2023-03-14T10:26:29.228Z,16.96
2023-03-14T10:29:44.499Z,17.50
2023-03-14T10:32:23.772Z,18.25
2023-03-14T10:35:14.771Z,18.74
2023-03-14T10:37:58.924Z,19.07
2023-03-14T10:40:31.789Z,19.54
2023-03-14T10:43:04.950Z,19.95
2023-03-14T10:45:44.861Z,20.25
2023-03-14T10:48:34.338Z,20.58
2023-03-14T10:51:08.574Z,20.95
2023-03-14T10:53:42.927Z,21.38
2023-03-14T10:56:16.446Z,21.68
2023-03-14T10:58:47.461Z,21.87
2023-03-14T11:01:43.131Z,21.99
2023-03-14T11:04:33.498Z,22.09
2023-03-14T11:07:18.076Z,22.03
2023-03-14T11:10:02.648Z,21.97
2023-03-14T11:12:56.433Z,21.89
2023-03-14T11:15:54.747Z,21.69
2023-03-14T11:18:35.435Z,21.56
2023-03-14T11:21:10.637Z,21.24
2023-03-14T11:23:57.659Z,21.07
2023-03-14T11:26:44.688Z,21.26
2023-03-14T11:29:22.629Z,21.47
2023-03-14T11:31:54.863Z,21.61
2023-03-14T11:34:51.064Z,21.78
2023-03-14T11:37:36.325Z,21.70
2023-03-14T11:40:28.980Z,21.62
2023-03-14T11:43:39.954Z,21.51
2023-03-14T11:46:41.018Z,21.25
2023-03-14T11:49:23.351Z,20.96
2023-03-14T11:52:02.322Z,20.73
2023-03-14T11:54:51.972Z,20.56
2023-03-14T11:57:21.889Z,20.00
2023-03-14T12:00:00.918Z,19.59
2023-03-14T12:02:42.491Z,19.08
2023-03-14T12:05:49.964Z,18.65
2023-03-14T12:08:36.863Z,18.20
2023-03-14T12:11:17.545Z,17.84
2023-03-14T12:13:52.372Z,17.73
2023-03-14T12:16:25.609Z,17.84
2023-03-14T12:18:55.107Z,17.96
2023-03-14T12:21:25.883Z,18.06
2023-03-14T12:23:57.521Z,18.13
2023-03-14T12:26:30.294Z,18.13
2023-03-14T12:28:58.779Z,18.16
2023-03-14T12:31:51.427Z,18.26
2023-03-14T12:34:19.921Z,18.46
2023-03-14T12:36:51.423Z,18.76
2023-03-14T12:39:34.799Z,19.04
2023-03-14T12:42:06.752Z,19.20
2023-03-14T12:44:44.405Z,19.37
2023-03-14T12:47:21.835Z,19.54
2023-03-14T12:49:52.070Z,19.62
2023-03-14T12:52:47.275Z,19.58
2023-03-14T12:55:56.369Z,19.58
2023-03-14T12:58:38.861Z,19.62
2023-03-14T13:01:45.664Z,19.73
2023-03-14T13:04:14.869Z,19.71
2023-03-14T13:06:49.492Z,19.63
2023-03-14T13:09:34.776Z,19.51
2023-03-14T13:12:04.431Z,19.45
2023-03-14T13:14:33.264Z,19.51
2023-03-14T13:17:19.369Z,19.50
2023-03-14T13:20:14.400Z,19.52
2023-03-14T13:22:48.423Z,19.47
2023-03-14T13:25:18.139Z,19.46
2023-03-14T13:27:46.780Z,19.57
2023-03-14T13:30:59.344Z,19.56
2023-03-14T13:33:28.486Z,19.56
2023-03-14T13:36:05.901Z,19.55
2023-03-14T13:38:37.481Z,19.58
2023-03-14T13:41:08.606Z,19.61
2023-03-14T13:43:43.192Z,19.56
2023-03-14T13:46:55.259Z,19.53
2023-03-14T13:49:26.353Z,19.52
2023-03-14T13:51:54.914Z,19.49
2023-03-14T13:54:24.243Z,19.52
2023-03-14T13:57:30.895Z,19.53
2023-03-14T14:00:02.093Z,19.58
2023-03-14T14:02:34.971Z,19.59
2023-03-14T14:05:04.586Z,19.51
2023-03-14T14:07:33.235Z,19.43
2023-03-14T14:10:02.684Z,19.35
2023-03-14T14:13:16.274Z,19.22
2023-03-14T14:15:48.371Z,19.17
2023-03-14T14:18:22.270Z,19.19
2023-03-14T14:20:51.342Z,19.20
2023-03-14T14:23:32.810Z,19.27
2023-03-14T14:26:01.380Z,19.30
2023-03-14T14:28:33.024Z,19.32
2023-03-14T14:31:14.958Z,19.34
2023-03-14T14:34:27.116Z,19.33
2023-03-14T14:36:55.670Z,19.24
2023-03-14T14:39:30.135Z,19.14
2023-03-14T14:41:59.712Z,19.07
2023-03-14T14:44:35.963Z,19.08
2023-03-14T14:47:05.370Z,19.04
2023-03-14T14:49:34.942Z,18.89
2023-03-14T14:52:10.762Z,18.68
2023-03-14T14:54:44.672Z,18.46
2023-03-14T14:57:21.720Z,18.27
2023-03-14T14:59:53.636Z,18.08
2023-03-14T15:02:31.445Z,17.95
2023-03-14T15:05:00.768Z,17.82
2023-03-14T15:07:29.246Z,17.72
2023-03-14T15:09:57.798Z,17.63
2023-03-14T15:12:26.219Z,17.47
2023-03-14T15:14:58.383Z,17.32
2023-03-14T15:17:26.833Z,17.19
2023-03-14T15:19:56.616Z,17.00
2023-03-14T15:22:25.398Z,16.85
2023-03-14T15:24:53.842Z,16.68
2023-03-14T15:27:22.310Z,16.50
2023-03-14T15:29:51.059Z,16.33
2023-03-14T15:32:19.757Z,16.13
2023-03-14T15:34:48.315Z,15.94
2023-03-14T15:37:18.147Z,15.73
2023-03-14T15:39:47.025Z,15.55
2023-03-14T15:42:15.490Z,15.41
2023-03-14T15:44:43.862Z,15.26
2023-03-14T15:47:12.404Z,15.10
2023-03-14T15:49:40.775Z,14.92
2023-03-14T15:52:10.294Z,14.77
2023-03-14T15:54:38.669Z,14.63
2023-03-14T15:57:07.712Z,14.47
2023-03-14T15:59:36.589Z,14.35
2023-03-14T16:02:05.098Z,14.23
2023-03-14T16:04:33.536Z,14.12
2023-03-14T16:07:01.872Z,14.02
2023-03-14T16:09:30.236Z,13.94
2023-03-14T16:11:58.645Z,13.85
2023-03-14T16:14:27.008Z,13.76
2023-03-14T16:16:56.074Z,13.67
2023-03-14T16:19:32.012Z,13.63
2023-03-14T16:22:00.459Z,13.57
2023-03-14T16:24:29.225Z,13.54
2023-03-14T16:26:57.569Z,13.48
2023-03-14T16:29:25.896Z,13.41
2023-03-14T16:31:54.280Z,13.36
2023-03-14T16:34:22.742Z,13.32
2023-03-14T16:36:54.266Z,13.26
2023-03-14T16:39:22.869Z,13.20
2023-03-14T16:41:57.261Z,13.14
2023-03-14T16:44:27.534Z,13.06
2023-03-14T16:46:55.809Z,12.94
2023-03-14T16:49:24.320Z,12.90
2023-03-14T16:51:52.842Z,12.87
2023-03-14T16:54:21.123Z,12.82
2023-03-14T16:56:49.754Z,12.77
2023-03-14T16:59:18.058Z,12.76
2023-03-14T17:01:46.730Z,12.75
2023-03-14T17:04:15.115Z,12.73
2023-03-14T17:06:45.554Z,12.71
2023-03-14T17:09:13.968Z,12.70
2023-03-14T17:11:42.391Z,12.67
2023-03-14T17:14:10.883Z,12.63
2023-03-14T17:16:39.331Z,12.62
2023-03-14T17:19:07.888Z,12.61
2023-03-14T17:21:36.362Z,12.59
2023-03-14T17:24:04.935Z,12.55
2023-03-14T17:26:33.341Z,12.52
2023-03-14T17:29:01.762Z,12.49
2023-03-14T17:31:30.196Z,12.43
2023-03-14T17:33:58.581Z,12.39
2023-03-14T17:36:30.639Z,12.34
2023-03-14T17:38:58.993Z,12.29
2023-03-14T17:41:27.456Z,12.26
2023-03-14T17:43:57.340Z,12.27
2023-03-14T17:46:26.910Z,12.26
2023-03-14T17:48:55.263Z,12.26
2023-03-14T17:51:23.799Z,12.23
2023-03-14T17:53:52.197Z,12.23
2023-03-14T17:56:20.673Z,12.22
2023-03-14T17:58:49.028Z,12.21
2023-03-14T18:01:19.590Z,12.20
2023-03-14T18:03:48.305Z,12.19
2023-03-14T18:06:17.802Z,12.19
2023-03-14T18:08:47.481Z,12.20
2023-03-14T18:11:17.099Z,12.21
2023-03-14T18:13:45.736Z,12.23
2023-03-14T18:16:14.793Z,12.26
2023-03-14T18:18:47.808Z,12.28
2023-03-14T18:21:18.466Z,12.29
2023-03-14T18:23:48.636Z,12.29
2023-03-14T18:26:17.489Z,12.31
2023-03-14T18:28:47.196Z,12.35
2023-03-14T18:31:18.273Z,12.41
2023-03-14T18:33:48.119Z,12.44
2023-03-14T18:36:17.258Z,12.49
2023-03-14T18:38:46.353Z,12.52
2023-03-14T18:41:17.350Z,12.57
2023-03-14T18:43:46.184Z,12.62
2023-03-14T18:46:15.729Z,12.63
2023-03-14T18:48:44.132Z,12.63
2023-03-14T18:51:18.365Z,12.63
2023-03-14T18:53:48.573Z,12.65
2023-03-14T18:56:18.925Z,12.67
2023-03-14T18:58:47.370Z,12.66
2023-03-14T19:01:17.786Z,12.64
2023-03-14T19:03:48.438Z,12.63
2023-03-14T19:06:17.593Z,12.60
2023-03-14T19:08:46.954Z,12.57
2023-03-14T19:11:15.576Z,12.56
2023-03-14T19:13:44.554Z,12.57
2023-03-14T19:16:14.804Z,12.57
2023-03-14T19:18:43.708Z,12.57
2023-03-14T19:21:14.456Z,12.58
2023-03-14T19:23:46.609Z,12.58
2023-03-14T19:26:16.390Z,12.58
2023-03-14T19:28:44.832Z,12.54
2023-03-14T19:31:13.508Z,12.52
2023-03-14T19:33:42.641Z,12.46
2023-03-14T19:36:22.713Z,12.43
2023-03-14T19:38:52.701Z,12.37
2023-03-14T19:41:23.367Z,12.30
2023-03-14T19:43:52.294Z,12.24
2023-03-14T19:46:21.936Z,12.19
2023-03-14T19:48:54.457Z,12.12
2023-03-14T19:51:23.354Z,12.07
2023-03-14T19:53:52.903Z,12.04
2023-03-14T19:56:24.141Z,12.03
2023-03-14T19:58:53.465Z,12.04
2023-03-14T20:01:22.161Z,12.08
2023-03-14T20:03:50.589Z,12.14
2023-03-14T20:06:18.997Z,12.18
2023-03-14T20:08:47.644Z,12.18
2023-03-14T20:11:16.087Z,12.20
2023-03-14T20:13:44.773Z,12.17
2023-03-14T20:16:13.597Z,12.15
2023-03-14T20:18:42.351Z,12.09
2023-03-14T20:21:15.578Z,12.06
2023-03-14T20:23:44.522Z,12.02
2023-03-14T20:26:12.855Z,11.99
2023-03-14T20:28:42.848Z,11.95
2023-03-14T20:31:11.298Z,11.90
2023-03-14T20:33:39.712Z,11.81
2023-03-14T20:36:08.991Z,11.69
2023-03-14T20:38:37.905Z,11.57
2023-03-14T20:41:07.754Z,11.43
2023-03-14T20:43:36.330Z,11.32
2023-03-14T20:46:05.675Z,11.20
2023-03-14T20:48:34.190Z,11.10
2023-03-14T20:51:02.929Z,10.97
2023-03-14T20:53:31.296Z,10.87
2023-03-14T20:55:59.694Z,10.80
2023-03-14T20:58:28.014Z,10.68
2023-03-14T21:00:57.423Z,10.61
2023-03-14T21:03:26.357Z,10.56
2023-03-14T21:05:55.105Z,10.52
2023-03-14T21:08:25.243Z,10.46
2023-03-14T21:10:55.577Z,10.39
2023-03-14T21:13:24.718Z,10.31
2023-03-14T21:15:53.581Z,10.23
2023-03-14T21:18:23.425Z,10.19
2023-03-14T21:20:54.732Z,10.12
2023-03-14T21:23:26.737Z,10.07
2023-03-14T21:25:58.903Z,10.02
2023-03-14T21:28:27.409Z,9.96
2023-03-14T21:30:56.002Z,9.92
2023-03-14T21:33:24.612Z,9.86
2023-03-14T21:35:53.525Z,9.81
2023-03-14T21:38:21.949Z,9.77
2023-03-14T21:40:57.251Z,9.74
2023-03-14T21:43:26.273Z,9.70
2023-03-14T21:45:54.846Z,9.68
2023-03-14T21:48:23.276Z,9.59
2023-03-14T21:50:52.006Z,9.51
2023-03-14T21:53:20.717Z,9.40
2023-03-14T21:55:49.086Z,9.33
2023-03-14T21:58:17.444Z,9.27
2023-03-14T22:00:49.390Z,9.22
2023-03-14T22:03:25.275Z,9.19
2023-03-14T22:05:53.746Z,9.11
2023-03-14T22:08:22.895Z,9.06
2023-03-14T22:10:53.456Z,8.96
2023-03-14T22:13:24.445Z,8.89
2023-03-14T22:15:53.100Z,8.82
2023-03-14T22:18:21.507Z,8.79
2023-03-14T22:20:49.885Z,8.77
2023-03-14T22:23:18.241Z,8.72
2023-03-14T22:25:49.474Z,8.67
2023-03-14T22:28:18.959Z,8.60
2023-03-14T22:30:51.584Z,8.56
2023-03-14T22:33:20.581Z,8.54
2023-03-14T22:35:50.604Z,8.52
2023-03-14T22:38:19.423Z,8.48
2023-03-14T22:40:48.716Z,8.42
2023-03-14T22:43:17.189Z,8.38
2023-03-14T22:45:45.872Z,8.33
2023-03-14T22:48:15.368Z,8.29
2023-03-14T22:50:43.861Z,8.26
2023-03-14T22:53:12.308Z,8.24
2023-03-14T22:55:40.688Z,8.20
2023-03-14T22:58:10.114Z,8.13
2023-03-14T23:00:39.219Z,8.06
2023-03-14T23:03:07.712Z,7.99
2023-03-14T23:05:36.158Z,7.92
2023-03-14T23:08:04.504Z,7.82
2023-03-14T23:10:35.539Z,7.76
2023-03-14T23:13:05.806Z,7.70
2023-03-14T23:15:34.564Z,7.63
2023-03-14T23:18:02.994Z,7.54
2023-03-14T23:20:31.489Z,7.45
2023-03-14T23:22:59.872Z,7.38
2023-03-14T23:25:30.063Z,7.34
2023-03-14T23:28:00.006Z,7.29
2023-03-14T23:30:28.684Z,7.25
2023-03-14T23:32:57.082Z,7.21
2023-03-14T23:35:25.455Z,7.15
2023-03-14T23:37:53.803Z,7.13
2023-03-14T23:40:22.208Z,7.10
2023-03-14T23:42:50.540Z,7.09
2023-03-14T23:45:18.908Z,7.07
2023-03-14T23:47:47.223Z,7.03
2023-03-14T23:50:15.611Z,6.95
2023-03-14T23:52:44.163Z,6.89
2023-03-14T23:55:12.559Z,6.85
2023-03-14T23:57:41.608Z,6.80
